sensor_id;sensor_type;location;lat;lon;timestamp;pressure;altitude;pressure_sealevel;temperature;humidity
14902;BME280;7542;49.078;9.194;2024-01-25T00:00:18;99745.34;;;28.65;27.74
14902;BME280;7542;49.078;9.194;2024-01-25T00:01:20;99745.34;;;28.65;27.71
14902;BME280;7542;49.078;9.194;2024-01-25T00:02:23;99748.31;;;28.63;27.77
14902;BME280;7542;49.078;9.194;2024-01-25T00:03:25;99744.53;;;28.64;27.44
14902;BME280;7542;49.078;9.194;2024-01-25T00:04:28;99737.50;;;28.63;27.71
14902;BME280;7542;49.078;9.194;2024-01-25T00:05:31;99737.25;;;28.65;27.63
14902;BME280;7542;49.078;9.194;2024-01-25T00:06:35;99738.31;;;28.64;27.78
14902;BME280;7542;49.078;9.194;2024-01-25T00:07:50;99731.84;;;28.65;27.76
14902;BME280;7542;49.078;9.194;2024-01-25T00:08:53;99730.22;;;28.64;27.75
14902;BME280;7542;49.078;9.194;2024-01-25T00:09:55;99734.53;;;28.65;27.54
14902;BME280;7542;49.078;9.194;2024-01-25T00:10:57;99735.88;;;28.62;27.79
14902;BME280;7542;49.078;9.194;2024-01-25T00:12:00;99728.88;;;28.61;27.92
14902;BME280;7542;49.078;9.194;2024-01-25T00:13:02;99727.53;;;28.64;27.72
14902;BME280;7542;49.078;9.194;2024-01-25T00:14:04;99734.00;;;28.63;27.72
14902;BME280;7542;49.078;9.194;2024-01-25T00:15:07;99732.38;;;28.62;27.55
14902;BME280;7542;49.078;9.194;2024-01-25T00:16:09;99730.50;;;28.62;27.81
14902;BME280;7542;49.078;9.194;2024-01-25T00:17:11;99732.94;;;28.64;27.50
14902;BME280;7542;49.078;9.194;2024-01-25T00:18:14;99739.66;;;28.61;27.88
14902;BME280;7542;49.078;9.194;2024-01-25T00:19:16;99737.78;;;28.62;27.84
14902;BME280;7542;49.078;9.194;2024-01-25T00:20:18;99740.47;;;28.62;27.80
14902;BME280;7542;49.078;9.194;2024-01-25T00:21:21;99739.66;;;28.61;27.68
14902;BME280;7542;49.078;9.194;2024-01-25T00:22:23;99733.44;;;28.61;27.69
14902;BME280;7542;49.078;9.194;2024-01-25T00:23:26;99736.16;;;28.61;27.75
14902;BME280;7542;49.078;9.194;2024-01-25T00:24:28;99736.16;;;28.61;27.63
14902;BME280;7542;49.078;9.194;2024-01-25T00:25:31;99737.78;;;28.62;27.81
14902;BME280;7542;49.078;9.194;2024-01-25T00:26:33;99737.78;;;28.62;27.81
14902;BME280;7542;49.078;9.194;2024-01-25T00:27:35;99732.38;;;28.62;27.59
14902;BME280;7542;49.078;9.194;2024-01-25T00:28:38;99731.56;;;28.61;27.81
14902;BME280;7542;49.078;9.194;2024-01-25T00:29:40;99723.72;;;28.59;27.82
14902;BME280;7542;49.078;9.194;2024-01-25T00:30:42;99727.25;;;28.60;27.79
14902;BME280;7542;49.078;9.194;2024-01-25T00:31:45;99738.03;;;28.60;27.88
14902;BME280;7542;49.078;9.194;2024-01-25T00:32:48;99721.03;;;28.59;27.59
14902;BME280;7542;49.078;9.194;2024-01-25T00:33:51;99715.91;;;28.58;27.87
14902;BME280;7542;49.078;9.194;2024-01-25T00:34:54;99715.09;;;28.57;27.69
14902;BME280;7542;49.078;9.194;2024-01-25T00:35:57;99719.41;;;28.58;27.84
14902;BME280;7542;49.078;9.194;2024-01-25T00:36:59;99716.16;;;28.56;27.55
14902;BME280;7542;49.078;9.194;2024-01-25T00:38:02;99715.34;;;28.56;27.85
14902;BME280;7542;49.078;9.194;2024-01-25T00:39:05;99709.97;;;28.56;27.73
14902;BME280;7542;49.078;9.194;2024-01-25T00:40:08;99713.47;;;28.56;27.58
14902;BME280;7542;49.078;9.194;2024-01-25T00:41:11;99702.94;;;28.55;27.56
14902;BME280;7542;49.078;9.194;2024-01-25T00:42:22;99701.59;;;28.57;27.96
14902;BME280;7542;49.078;9.194;2024-01-25T00:43:25;99701.88;;;28.56;27.90
14902;BME280;7542;49.078;9.194;2024-01-25T00:44:28;99703.97;;;28.54;27.61
14902;BME280;7542;49.078;9.194;2024-01-25T00:45:31;99709.38;;;28.54;27.71
14902;BME280;7542;49.078;9.194;2024-01-25T00:46:33;99705.88;;;28.53;27.94
14902;BME280;7542;49.078;9.194;2024-01-25T00:47:36;99698.03;;;28.52;27.90
14902;BME280;7542;49.078;9.194;2024-01-25T00:48:39;99699.94;;;28.51;27.62
14902;BME280;7542;49.078;9.194;2024-01-25T00:49:45;99705.06;;;28.53;27.90
14902;BME280;7542;49.078;9.194;2024-01-25T00:50:48;99712.59;;;28.51;28.12
14902;BME280;7542;49.078;9.194;2024-01-25T00:51:53;99704.50;;;28.51;27.66
14902;BME280;7542;49.078;9.194;2024-01-25T00:52:58;99707.47;;;28.49;27.91
14902;BME280;7542;49.078;9.194;2024-01-25T00:54:00;99707.47;;;28.49;27.83
14902;BME280;7542;49.078;9.194;2024-01-25T00:55:03;99710.16;;;28.49;27.61
14902;BME280;7542;49.078;9.194;2024-01-25T00:56:06;99712.06;;;28.49;27.96
14902;BME280;7542;49.078;9.194;2024-01-25T00:57:09;99703.16;;;28.48;27.85
14902;BME280;7542;49.078;9.194;2024-01-25T00:58:11;99706.94;;;28.47;27.65
14902;BME280;7542;49.078;9.194;2024-01-25T00:59:14;99715.28;;;28.46;27.65
14902;BME280;7542;49.078;9.194;2024-01-25T01:00:17;99710.97;;;28.45;27.94
14902;BME280;7542;49.078;9.194;2024-01-25T01:01:21;99709.88;;;28.46;27.86
14902;BME280;7542;49.078;9.194;2024-01-25T01:02:25;99708.25;;;28.45;27.95
14902;BME280;7542;49.078;9.194;2024-01-25T01:03:33;99703.91;;;28.44;27.93
14902;BME280;7542;49.078;9.194;2024-01-25T01:04:35;99704.19;;;28.42;27.67
14902;BME280;7542;49.078;9.194;2024-01-25T01:05:49;99700.16;;;28.45;27.89
14902;BME280;7542;49.078;9.194;2024-01-25T01:06:52;99694.19;;;28.43;27.92
14902;BME280;7542;49.078;9.194;2024-01-25T01:07:55;99700.66;;;28.42;27.91
14902;BME280;7542;49.078;9.194;2024-01-25T01:08:57;99701.75;;;28.41;27.91
14902;BME280;7542;49.078;9.194;2024-01-25T01:10:01;99699.03;;;28.41;27.47
14902;BME280;7542;49.078;9.194;2024-01-25T01:11:04;99700.94;;;28.40;27.87
14902;BME280;7542;49.078;9.194;2024-01-25T01:12:07;99712.78;;;28.39;27.93
14902;BME280;7542;49.078;9.194;2024-01-25T01:13:09;99713.34;;;28.41;27.91
14902;BME280;7542;49.078;9.194;2024-01-25T01:14:12;99711.16;;;28.38;28.00
14902;BME280;7542;49.078;9.194;2024-01-25T01:15:14;99716.84;;;28.37;27.81
14902;BME280;7542;49.078;9.194;2024-01-25T01:16:16;99713.31;;;28.36;27.90
14902;BME280;7542;49.078;9.194;2024-01-25T01:17:18;99720.34;;;28.37;27.87
14902;BME280;7542;49.078;9.194;2024-01-25T01:18:21;99718.16;;;28.34;28.05
14902;BME280;7542;49.078;9.194;2024-01-25T01:19:23;99725.19;;;28.35;27.99
14902;BME280;7542;49.078;9.194;2024-01-25T01:20:26;99725.44;;;28.34;28.00
14902;BME280;7542;49.078;9.194;2024-01-25T01:21:29;99719.25;;;28.33;27.99
14902;BME280;7542;49.078;9.194;2024-01-25T01:22:31;99720.28;;;28.32;27.95
14902;BME280;7542;49.078;9.194;2024-01-25T01:23:33;99721.94;;;28.33;27.92
14902;BME280;7542;49.078;9.194;2024-01-25T01:24:36;99729.19;;;28.33;27.82
14902;BME280;7542;49.078;9.194;2024-01-25T01:25:38;99727.56;;;28.32;27.79
14902;BME280;7542;49.078;9.194;2024-01-25T01:26:40;99727.56;;;28.32;27.95
14902;BME280;7542;49.078;9.194;2024-01-25T01:27:44;99724.88;;;28.32;27.77
14902;BME280;7542;49.078;9.194;2024-01-25T01:28:46;99722.44;;;28.30;27.71
14902;BME280;7542;49.078;9.194;2024-01-25T01:29:48;99721.63;;;28.29;27.83
14902;BME280;7542;49.078;9.194;2024-01-25T01:30:51;99725.13;;;28.30;27.86
14902;BME280;7542;49.078;9.194;2024-01-25T01:31:53;99731.59;;;28.29;27.89
14902;BME280;7542;49.078;9.194;2024-01-25T01:32:56;99732.91;;;28.26;28.05
14902;BME280;7542;49.078;9.194;2024-01-25T01:33:58;99725.63;;;28.27;27.86
14902;BME280;7542;49.078;9.194;2024-01-25T01:35:01;99735.38;;;28.28;28.03
14902;BME280;7542;49.078;9.194;2024-01-25T01:36:03;99736.41;;;28.27;27.80
14902;BME280;7542;49.078;9.194;2024-01-25T01:37:06;99739.38;;;28.25;28.23
14902;BME280;7542;49.078;9.194;2024-01-25T01:38:08;99735.88;;;28.25;28.01
14902;BME280;7542;49.078;9.194;2024-01-25T01:39:10;99739.38;;;28.25;28.03
14902;BME280;7542;49.078;9.194;2024-01-25T01:40:13;99742.34;;;28.24;28.05
14902;BME280;7542;49.078;9.194;2024-01-25T01:41:15;99732.34;;;28.24;28.03
14902;BME280;7542;49.078;9.194;2024-01-25T01:42:18;99732.63;;;28.23;28.14
14902;BME280;7542;49.078;9.194;2024-01-25T01:43:21;99724.53;;;28.23;27.90
14902;BME280;7542;49.078;9.194;2024-01-25T01:44:25;99724.75;;;28.21;27.86
14902;BME280;7542;49.078;9.194;2024-01-25T01:45:27;99722.06;;;28.21;28.00
14902;BME280;7542;49.078;9.194;2024-01-25T01:47:40;99713.16;;;28.21;28.09
14902;BME280;7542;49.078;9.194;2024-01-25T01:48:43;99718.53;;;28.21;28.13
14902;BME280;7542;49.078;9.194;2024-01-25T01:49:46;99713.16;;;28.21;28.07
14902;BME280;7542;49.078;9.194;2024-01-25T01:50:50;99712.59;;;28.19;27.96
14902;BME280;7542;49.078;9.194;2024-01-25T01:51:53;99714.50;;;28.18;27.90
14902;BME280;7542;49.078;9.194;2024-01-25T01:52:55;99713.69;;;28.18;28.08
14902;BME280;7542;49.078;9.194;2024-01-25T01:53:59;99713.69;;;28.18;27.92
14902;BME280;7542;49.078;9.194;2024-01-25T01:55:02;99713.69;;;28.18;28.08
14902;BME280;7542;49.078;9.194;2024-01-25T01:56:05;99706.91;;;28.15;27.87
14902;BME280;7542;49.078;9.194;2024-01-25T01:57:08;99723.91;;;28.16;28.16
14902;BME280;7542;49.078;9.194;2024-01-25T01:58:11;99716.91;;;28.15;28.09
14902;BME280;7542;49.078;9.194;2024-01-25T01:59:13;99715.81;;;28.16;27.99
14902;BME280;7542;49.078;9.194;2024-01-25T02:00:17;99715.00;;;28.15;27.89
14902;BME280;7542;49.078;9.194;2024-01-25T02:01:20;99716.34;;;28.13;28.10
14902;BME280;7542;49.078;9.194;2024-01-25T02:02:23;99717.16;;;28.13;28.08
14902;BME280;7542;49.078;9.194;2024-01-25T02:03:26;99721.97;;;28.11;28.14
14902;BME280;7542;49.078;9.194;2024-01-25T02:04:28;99715.53;;;28.12;28.14
14902;BME280;7542;49.078;9.194;2024-01-25T02:05:31;99712.84;;;28.12;27.90
14902;BME280;7542;49.078;9.194;2024-01-25T02:06:33;99716.56;;;28.11;28.12
14902;BME280;7542;49.078;9.194;2024-01-25T02:07:36;99719.53;;;28.10;27.93
14902;BME280;7542;49.078;9.194;2024-01-25T02:08:40;99713.31;;;28.09;28.00
14902;BME280;7542;49.078;9.194;2024-01-25T02:09:42;99716.84;;;28.10;27.97
14902;BME280;7542;49.078;9.194;2024-01-25T02:10:45;99718.72;;;28.09;28.00
14902;BME280;7542;49.078;9.194;2024-01-25T02:11:47;99721.41;;;28.09;28.02
14902;BME280;7542;49.078;9.194;2024-01-25T02:12:50;99724.38;;;28.08;28.11
14902;BME280;7542;49.078;9.194;2024-01-25T02:13:52;99734.09;;;28.09;27.92
14902;BME280;7542;49.078;9.194;2024-01-25T02:14:54;99727.06;;;28.08;27.92
14902;BME280;7542;49.078;9.194;2024-01-25T02:15:57;99720.88;;;28.07;27.85
14902;BME280;7542;49.078;9.194;2024-01-25T02:16:59;99728.16;;;28.07;28.15
14902;BME280;7542;49.078;9.194;2024-01-25T02:18:02;99728.16;;;28.07;28.09
14902;BME280;7542;49.078;9.194;2024-01-25T02:19:05;99724.63;;;28.06;28.14
14902;BME280;7542;49.078;9.194;2024-01-25T02:20:08;99720.56;;;28.04;28.22
14902;BME280;7542;49.078;9.194;2024-01-25T02:21:10;99719.75;;;28.03;27.89
14902;BME280;7542;49.078;9.194;2024-01-25T02:22:16;99714.13;;;28.05;28.16
14902;BME280;7542;49.078;9.194;2024-01-25T02:23:20;99719.50;;;28.05;28.16
14902;BME280;7542;49.078;9.194;2024-01-25T02:24:22;99718.94;;;28.02;27.99
14902;BME280;7542;49.078;9.194;2024-01-25T02:25:24;99718.13;;;28.02;27.98
14902;BME280;7542;49.078;9.194;2024-01-25T02:26:27;99717.56;;;28.00;28.09
14902;BME280;7542;49.078;9.194;2024-01-25T02:27:29;99716.75;;;27.99;28.18
14902;BME280;7542;49.078;9.194;2024-01-25T02:28:31;99717.81;;;27.98;28.05
14902;BME280;7542;49.078;9.194;2024-01-25T02:29:34;99722.41;;;27.98;28.19
14902;BME280;7542;49.078;9.194;2024-01-25T02:30:37;99724.28;;;27.97;28.10
14902;BME280;7542;49.078;9.194;2024-01-25T02:31:39;99721.59;;;27.97;28.00
14902;BME280;7542;49.078;9.194;2024-01-25T02:32:43;99722.41;;;27.98;28.02
14902;BME280;7542;49.078;9.194;2024-01-25T02:33:46;99728.06;;;27.96;28.06
14902;BME280;7542;49.078;9.194;2024-01-25T02:34:48;99725.63;;;27.95;28.02
14902;BME280;7542;49.078;9.194;2024-01-25T02:35:51;99731.81;;;27.95;28.17
14902;BME280;7542;49.078;9.194;2024-01-25T02:36:53;99729.13;;;27.95;27.93
14902;BME280;7542;49.078;9.194;2024-01-25T02:37:55;99730.75;;;27.96;28.23
14902;BME280;7542;49.078;9.194;2024-01-25T02:38:58;99731.00;;;27.95;28.03
14902;BME280;7542;49.078;9.194;2024-01-25T02:40:01;99724.00;;;27.94;27.94
14902;BME280;7542;49.078;9.194;2024-01-25T02:41:03;99727.75;;;27.93;27.97
14902;BME280;7542;49.078;9.194;2024-01-25T02:42:07;99730.44;;;27.93;28.00
14902;BME280;7542;49.078;9.194;2024-01-25T02:43:09;99733.16;;;27.93;28.01
14902;BME280;7542;49.078;9.194;2024-01-25T02:44:12;99734.22;;;27.92;28.06
14902;BME280;7542;49.078;9.194;2024-01-25T02:45:15;99733.41;;;27.91;28.24
14902;BME280;7542;49.078;9.194;2024-01-25T02:46:17;99738.53;;;27.93;28.20
14902;BME280;7542;49.078;9.194;2024-01-25T02:47:20;99742.31;;;27.92;28.03
14902;BME280;7542;49.078;9.194;2024-01-25T02:48:22;99738.81;;;27.91;28.03
14902;BME280;7542;49.078;9.194;2024-01-25T02:49:25;99735.53;;;27.89;28.19
14902;BME280;7542;49.078;9.194;2024-01-25T02:50:27;99735.53;;;27.89;28.00
14902;BME280;7542;49.078;9.194;2024-01-25T02:51:30;99733.66;;;27.90;28.06
14902;BME280;7542;49.078;9.194;2024-01-25T02:52:32;99729.56;;;27.87;28.22
14902;BME280;7542;49.078;9.194;2024-01-25T02:53:34;99730.38;;;27.88;28.10
14902;BME280;7542;49.078;9.194;2024-01-25T02:54:36;99743.88;;;27.88;28.07
14902;BME280;7542;49.078;9.194;2024-01-25T02:55:39;99735.22;;;27.86;28.27
14902;BME280;7542;49.078;9.194;2024-01-25T02:56:41;99735.22;;;27.86;28.09
14902;BME280;7542;49.078;9.194;2024-01-25T02:57:44;99734.16;;;27.87;28.13
14902;BME280;7542;49.078;9.194;2024-01-25T02:58:46;99732.53;;;27.86;28.35
14902;BME280;7542;49.078;9.194;2024-01-25T02:59:48;99739.81;;;27.85;28.32
14902;BME280;7542;49.078;9.194;2024-01-25T03:00:51;99726.31;;;27.85;28.01
14902;BME280;7542;49.078;9.194;2024-01-25T03:01:54;99729.84;;;27.86;28.24
14902;BME280;7542;49.078;9.194;2024-01-25T03:02:57;99731.16;;;27.83;28.29
14902;BME280;7542;49.078;9.194;2024-01-25T03:03:59;99732.78;;;27.84;28.14
14902;BME280;7542;49.078;9.194;2024-01-25T03:05:02;99727.66;;;27.83;28.12
14902;BME280;7542;49.078;9.194;2024-01-25T03:06:06;99723.06;;;27.83;28.03
14902;BME280;7542;49.078;9.194;2024-01-25T03:07:08;99727.66;;;27.83;28.17
14902;BME280;7542;49.078;9.194;2024-01-25T03:08:11;99730.63;;;27.81;28.22
14902;BME280;7542;49.078;9.194;2024-01-25T03:09:14;99723.34;;;27.82;28.10
14902;BME280;7542;49.078;9.194;2024-01-25T03:10:16;99713.88;;;27.79;28.25
14902;BME280;7542;49.078;9.194;2024-01-25T03:11:18;99719.28;;;27.79;28.05
14902;BME280;7542;49.078;9.194;2024-01-25T03:12:21;99713.88;;;27.79;28.26
14902;BME280;7542;49.078;9.194;2024-01-25T03:13:23;99710.94;;;27.81;28.03
14902;BME280;7542;49.078;9.194;2024-01-25T03:14:25;99713.31;;;27.77;28.22
14902;BME280;7542;49.078;9.194;2024-01-25T03:15:28;99708.72;;;27.78;28.30
14902;BME280;7542;49.078;9.194;2024-01-25T03:16:30;99714.94;;;27.78;28.09
14902;BME280;7542;49.078;9.194;2024-01-25T03:17:32;99720.56;;;27.77;28.08
14902;BME280;7542;49.078;9.194;2024-01-25T03:18:35;99714.94;;;27.78;28.24
14902;BME280;7542;49.078;9.194;2024-01-25T03:19:38;99711.69;;;27.76;28.22
14902;BME280;7542;49.078;9.194;2024-01-25T03:20:40;99714.38;;;27.76;28.29
14902;BME280;7542;49.078;9.194;2024-01-25T03:21:42;99710.59;;;27.77;28.11
14902;BME280;7542;49.078;9.194;2024-01-25T03:22:45;99706.53;;;27.75;28.15
14902;BME280;7542;49.078;9.194;2024-01-25T03:23:47;99713.81;;;27.74;28.35
14902;BME280;7542;49.078;9.194;2024-01-25T03:24:49;99712.19;;;27.73;28.26
14902;BME280;7542;49.078;9.194;2024-01-25T03:25:52;99722.97;;;27.73;28.07
14902;BME280;7542;49.078;9.194;2024-01-25T03:26:54;99729.44;;;27.72;28.33
14902;BME280;7542;49.078;9.194;2024-01-25T03:27:57;99722.41;;;27.71;28.17
14902;BME280;7542;49.078;9.194;2024-01-25T03:28:59;99722.97;;;27.73;28.20
14902;BME280;7542;49.078;9.194;2024-01-25T03:30:01;99726.75;;;27.72;28.05
14902;BME280;7542;49.078;9.194;2024-01-25T03:31:04;99720.53;;;27.71;28.17
14902;BME280;7542;49.078;9.194;2024-01-25T03:32:06;99719.72;;;27.71;28.09
14902;BME280;7542;49.078;9.194;2024-01-25T03:33:09;99724.56;;;27.69;28.29
14902;BME280;7542;49.078;9.194;2024-01-25T03:34:11;99720.78;;;27.70;28.18
14902;BME280;7542;49.078;9.194;2024-01-25T03:35:14;99732.66;;;27.69;28.09
14902;BME280;7542;49.078;9.194;2024-01-25T03:36:16;99731.84;;;27.68;28.26
14902;BME280;7542;49.078;9.194;2024-01-25T03:37:19;99734.28;;;27.70;28.21
14902;BME280;7542;49.078;9.194;2024-01-25T03:38:21;99726.44;;;27.68;28.37
14902;BME280;7542;49.078;9.194;2024-01-25T03:39:23;99736.41;;;27.68;28.19
14902;BME280;7542;49.078;9.194;2024-01-25T03:40:25;99730.19;;;27.67;28.10
14902;BME280;7542;49.078;9.194;2024-01-25T03:41:28;99736.41;;;27.68;28.26
14902;BME280;7542;49.078;9.194;2024-01-25T03:42:31;99741.81;;;27.68;28.18
14902;BME280;7542;49.078;9.194;2024-01-25T03:43:33;99738.25;;;27.67;28.26
14902;BME280;7542;49.078;9.194;2024-01-25T03:44:44;99740.97;;;27.67;28.29
14902;BME280;7542;49.078;9.194;2024-01-25T03:45:48;99733.34;;;27.64;28.26
14902;BME280;7542;49.078;9.194;2024-01-25T03:46:51;99732.31;;;27.65;28.17
14902;BME280;7542;49.078;9.194;2024-01-25T03:47:53;99732.31;;;27.65;28.19
14902;BME280;7542;49.078;9.194;2024-01-25T03:48:56;99733.34;;;27.64;28.24
14902;BME280;7542;49.078;9.194;2024-01-25T03:49:58;99739.59;;;27.65;28.25
14902;BME280;7542;49.078;9.194;2024-01-25T03:51:02;99739.00;;;27.63;28.29
14902;BME280;7542;49.078;9.194;2024-01-25T03:52:05;99735.50;;;27.62;28.33
14902;BME280;7542;49.078;9.194;2024-01-25T03:53:08;99738.19;;;27.62;28.20
14902;BME280;7542;49.078;9.194;2024-01-25T03:54:10;99739.25;;;27.61;28.36
14902;BME280;7542;49.078;9.194;2024-01-25T03:55:12;99744.41;;;27.63;28.39
14902;BME280;7542;49.078;9.194;2024-01-25T03:56:15;99740.34;;;27.60;28.09
14902;BME280;7542;49.078;9.194;2024-01-25T03:57:19;99734.13;;;27.60;28.20
14902;BME280;7542;49.078;9.194;2024-01-25T03:58:21;99734.13;;;27.60;28.17
14902;BME280;7542;49.078;9.194;2024-01-25T03:59:24;99737.91;;;27.59;28.04
14902;BME280;7542;49.078;9.194;2024-01-25T04:00:26;99732.50;;;27.59;28.30
14902;BME280;7542;49.078;9.194;2024-01-25T04:01:29;99738.97;;;27.58;28.31
14902;BME280;7542;49.078;9.194;2024-01-25T04:02:33;99738.72;;;27.59;28.31
14902;BME280;7542;49.078;9.194;2024-01-25T04:03:36;99744.34;;;27.58;28.26
14902;BME280;7542;49.078;9.194;2024-01-25T04:04:38;99745.38;;;27.57;28.29
14902;BME280;7542;49.078;9.194;2024-01-25T04:05:41;99745.38;;;27.57;28.38
14902;BME280;7542;49.078;9.194;2024-01-25T04:06:44;99750.78;;;27.57;28.16
14902;BME280;7542;49.078;9.194;2024-01-25T04:07:48;99758.88;;;27.57;28.38
14902;BME280;7542;49.078;9.194;2024-01-25T04:08:50;99755.59;;;27.55;28.29
14902;BME280;7542;49.078;9.194;2024-01-25T04:09:52;99762.06;;;27.54;28.35
14902;BME280;7542;49.078;9.194;2024-01-25T04:10:55;99764.50;;;27.55;28.25
14902;BME280;7542;49.078;9.194;2024-01-25T04:11:57;99768.00;;;27.56;28.22
14902;BME280;7542;49.078;9.194;2024-01-25T04:12:59;99761.25;;;27.53;28.40
14902;BME280;7542;49.078;9.194;2024-01-25T04:14:07;99771.22;;;27.53;28.24
14902;BME280;7542;49.078;9.194;2024-01-25T04:15:09;99774.97;;;27.52;28.37
14902;BME280;7542;49.078;9.194;2024-01-25T04:16:14;99782.81;;;27.53;28.26
14902;BME280;7542;49.078;9.194;2024-01-25T04:17:17;99778.50;;;27.52;28.31
14902;BME280;7542;49.078;9.194;2024-01-25T04:18:19;99783.88;;;27.52;28.26
14902;BME280;7542;49.078;9.194;2024-01-25T04:19:21;99783.06;;;27.52;28.31
14902;BME280;7542;49.078;9.194;2024-01-25T04:20:24;99781.44;;;27.51;28.44
14902;BME280;7542;49.078;9.194;2024-01-25T04:21:27;99770.66;;;27.51;28.38
14902;BME280;7542;49.078;9.194;2024-01-25T04:22:30;99782.25;;;27.51;28.34
14902;BME280;7542;49.078;9.194;2024-01-25T04:23:32;99774.16;;;27.51;28.24
14902;BME280;7542;49.078;9.194;2024-01-25T04:24:34;99779.81;;;27.50;28.21
14902;BME280;7542;49.078;9.194;2024-01-25T04:25:37;99776.31;;;27.49;28.25
14902;BME280;7542;49.078;9.194;2024-01-25T04:26:39;99780.88;;;27.49;28.24
14902;BME280;7542;49.078;9.194;2024-01-25T04:27:41;99785.47;;;27.48;28.33
14902;BME280;7542;49.078;9.194;2024-01-25T04:28:44;99774.69;;;27.48;28.30
14902;BME280;7542;49.078;9.194;2024-01-25T04:29:46;99776.31;;;27.49;28.41
14902;BME280;7542;49.078;9.194;2024-01-25T04:30:49;99775.50;;;27.49;28.08
14902;BME280;7542;49.078;9.194;2024-01-25T04:31:51;99783.56;;;27.49;28.28
14902;BME280;7542;49.078;9.194;2024-01-25T04:32:54;99780.06;;;27.48;28.19
14902;BME280;7542;49.078;9.194;2024-01-25T04:33:56;99778.19;;;27.49;28.23
14902;BME280;7542;49.078;9.194;2024-01-25T04:34:59;99778.19;;;27.49;28.12
14902;BME280;7542;49.078;9.194;2024-01-25T04:36:01;99783.84;;;27.47;28.02
14902;BME280;7542;49.078;9.194;2024-01-25T04:37:04;99784.66;;;27.48;28.19
14902;BME280;7542;49.078;9.194;2024-01-25T04:38:06;99780.31;;;27.47;28.31
14902;BME280;7542;49.078;9.194;2024-01-25T04:39:09;99779.47;;;27.46;28.12
14902;BME280;7542;49.078;9.194;2024-01-25T04:40:11;99785.47;;;27.48;28.16
14902;BME280;7542;49.078;9.194;2024-01-25T04:41:13;99780.31;;;27.47;28.03
14902;BME280;7542;49.078;9.194;2024-01-25T04:42:16;99781.13;;;27.47;28.12
14902;BME280;7542;49.078;9.194;2024-01-25T04:43:18;99788.41;;;27.47;28.20
14902;BME280;7542;49.078;9.194;2024-01-25T04:44:20;99794.84;;;27.45;28.07
14902;BME280;7542;49.078;9.194;2024-01-25T04:45:23;99783.84;;;27.47;28.22
14902;BME280;7542;49.078;9.194;2024-01-25T04:46:25;99795.09;;;27.44;28.29
14902;BME280;7542;49.078;9.194;2024-01-25T04:47:28;99792.13;;;27.45;28.31
14902;BME280;7542;49.078;9.194;2024-01-25T04:48:31;99799.66;;;27.43;28.21
14902;BME280;7542;49.078;9.194;2024-01-25T04:49:34;99798.84;;;27.43;28.29
14902;BME280;7542;49.078;9.194;2024-01-25T04:50:37;99799.41;;;27.45;28.20
14902;BME280;7542;49.078;9.194;2024-01-25T04:51:41;99798.59;;;27.44;28.14
14902;BME280;7542;49.078;9.194;2024-01-25T04:52:44;99798.03;;;27.42;28.27
14902;BME280;7542;49.078;9.194;2024-01-25T04:53:46;99794.78;;;27.40;28.31
14902;BME280;7542;49.078;9.194;2024-01-25T04:54:49;99799.09;;;27.41;28.24
14902;BME280;7542;49.078;9.194;2024-01-25T04:55:53;99804.50;;;27.41;28.22
14902;BME280;7542;49.078;9.194;2024-01-25T04:56:55;99810.13;;;27.40;28.20
14902;BME280;7542;49.078;9.194;2024-01-25T04:57:57;99814.72;;;27.39;28.24
14902;BME280;7542;49.078;9.194;2024-01-25T04:59:00;99809.31;;;27.39;28.23
14902;BME280;7542;49.078;9.194;2024-01-25T05:00:02;99814.72;;;27.39;28.10
14902;BME280;7542;49.078;9.194;2024-01-25T05:01:05;99825.47;;;27.39;28.30
14902;BME280;7542;49.078;9.194;2024-01-25T05:02:09;99825.47;;;27.39;28.20
14902;BME280;7542;49.078;9.194;2024-01-25T05:03:11;99827.34;;;27.39;28.20
14902;BME280;7542;49.078;9.194;2024-01-25T05:04:15;99826.53;;;27.38;28.04
14902;BME280;7542;49.078;9.194;2024-01-25T05:05:18;99831.13;;;27.38;27.97
14902;BME280;7542;49.078;9.194;2024-01-25T05:06:20;99833.00;;;27.37;28.13
14902;BME280;7542;49.078;9.194;2024-01-25T05:07:23;99842.44;;;27.40;28.12
14902;BME280;7542;49.078;9.194;2024-01-25T05:08:32;99837.31;;;27.38;28.10
14902;BME280;7542;49.078;9.194;2024-01-25T05:09:34;99833.00;;;27.37;27.95
14902;BME280;7542;49.078;9.194;2024-01-25T05:10:36;99842.72;;;27.38;28.05
14902;BME280;7542;49.078;9.194;2024-01-25T05:11:39;99835.69;;;27.37;28.24
14902;BME280;7542;49.078;9.194;2024-01-25T05:12:42;99837.31;;;27.38;28.20
14902;BME280;7542;49.078;9.194;2024-01-25T05:13:44;99843.53;;;27.39;27.88
14902;BME280;7542;49.078;9.194;2024-01-25T05:14:47;99847.03;;;27.39;28.04
14902;BME280;7542;49.078;9.194;2024-01-25T05:15:49;99840.81;;;27.39;27.96
14902;BME280;7542;49.078;9.194;2024-01-25T05:16:52;99836.25;;;27.39;28.05
14902;BME280;7542;49.078;9.194;2024-01-25T05:17:55;99832.50;;;27.40;28.10
14902;BME280;7542;49.078;9.194;2024-01-25T05:18:57;99835.44;;;27.39;27.86
14902;BME280;7542;49.078;9.194;2024-01-25T05:20:00;99830.06;;;27.39;28.11
14902;BME280;7542;49.078;9.194;2024-01-25T05:21:03;99834.38;;;27.40;27.78
14902;BME280;7542;49.078;9.194;2024-01-25T05:22:05;99835.44;;;27.39;27.91
14902;BME280;7542;49.078;9.194;2024-01-25T05:23:09;99838.69;;;27.41;27.79
14902;BME280;7542;49.078;9.194;2024-01-25T05:24:11;99840.56;;;27.40;27.81
14902;BME280;7542;49.078;9.194;2024-01-25T05:25:14;99835.75;;;27.42;27.98
14902;BME280;7542;49.078;9.194;2024-01-25T05:26:16;99837.06;;;27.40;28.06
14902;BME280;7542;49.078;9.194;2024-01-25T05:27:19;99838.69;;;27.41;28.00
14902;BME280;7542;49.078;9.194;2024-01-25T05:28:21;99844.91;;;27.41;27.93
14902;BME280;7542;49.078;9.194;2024-01-25T05:29:23;99841.38;;;27.41;28.01
14902;BME280;7542;49.078;9.194;2024-01-25T05:30:26;99838.69;;;27.41;27.91
14902;BME280;7542;49.078;9.194;2024-01-25T05:31:28;99841.38;;;27.41;27.99
14902;BME280;7542;49.078;9.194;2024-01-25T05:32:30;99839.50;;;27.41;28.10
14902;BME280;7542;49.078;9.194;2024-01-25T05:33:33;99834.38;;;27.40;27.95
14902;BME280;7542;49.078;9.194;2024-01-25T05:34:35;99840.81;;;27.39;28.13
14902;BME280;7542;49.078;9.194;2024-01-25T05:35:38;99838.94;;;27.39;27.87
14902;BME280;7542;49.078;9.194;2024-01-25T05:36:40;99842.19;;;27.41;27.84
14902;BME280;7542;49.078;9.194;2024-01-25T05:37:44;99841.38;;;27.41;27.94